createdAt,value
2022-12-31T00:00:29.645Z,37.75
2022-12-31T00:03:33.376Z,40.03
2022-12-31T00:06:36.317Z,33.35
2022-12-31T00:09:38.966Z,42.10
2022-12-31T00:12:41.370Z,32.50
2022-12-31T00:15:44.986Z,37.25
2022-12-31T00:18:52.588Z,37.83
2022-12-31T00:21:55.197Z,33.28
2022-12-31T00:24:57.503Z,33.80
2022-12-31T00:28:00.110Z,34.72
2022-12-31T00:31:17.190Z,30.48
2022-12-31T00:34:20.794Z,30.52
2022-12-31T00:37:23.105Z,34.72
2022-12-31T00:40:25.716Z,31.52
2022-12-31T00:43:28.065Z,34.13
2022-12-31T00:46:32.171Z,30.50
2022-12-31T00:49:34.491Z,36.00
2022-12-31T00:52:37.210Z,29.52
2022-12-31T00:55:39.520Z,30.62
2022-12-31T00:58:43.384Z,33.25
2022-12-31T01:01:45.966Z,36.55
2022-12-31T01:04:48.879Z,36.78
2022-12-31T01:07:51.154Z,40.12
2022-12-31T01:11:17.627Z,31.92
2022-12-31T01:14:20.696Z,33.88
2022-12-31T01:17:23.378Z,42.20
2022-12-31T01:20:25.654Z,41.37
2022-12-31T01:23:28.269Z,40.72
2022-12-31T01:26:31.982Z,43.97
2022-12-31T01:32:36.818Z,40.28
2022-12-31T01:35:39.986Z,40.27
2022-12-31T01:38:42.940Z,35.60
2022-12-31T01:41:47.949Z,42.97
2022-12-31T01:44:55.418Z,37.95
2022-12-31T01:48:00.187Z,41.90
2022-12-31T01:51:02.499Z,45.42
2022-12-31T01:54:08.735Z,38.38
2022-12-31T01:57:12.046Z,36.58
2022-12-31T02:00:15.597Z,36.17
2022-12-31T02:03:22.742Z,32.80
2022-12-31T02:06:35.113Z,35.42
2022-12-31T02:09:40.185Z,39.70
2022-12-31T02:12:42.607Z,38.72
2022-12-31T02:16:34.508Z,29.73
2022-12-31T02:20:14.086Z,32.15
2022-12-31T02:23:34.888Z,31.17
2022-12-31T02:26:52.150Z,38.25
2022-12-31T02:29:57.807Z,30.92
2022-12-31T02:33:19.286Z,31.98
2022-12-31T02:36:28.809Z,32.53
2022-12-31T02:39:32.266Z,32.47
2022-12-31T02:42:34.891Z,31.67
2022-12-31T02:45:43.189Z,28.65
2022-12-31T02:48:52.879Z,32.85
2022-12-31T02:52:29.536Z,34.92
2022-12-31T02:55:48.975Z,38.90
2022-12-31T02:59:27.073Z,33.53
2022-12-31T03:02:33.464Z,32.17
2022-12-31T03:05:41.622Z,40.05
2022-12-31T03:09:02.542Z,38.72
2022-12-31T03:12:26.873Z,43.35
2022-12-31T03:15:32.421Z,36.65
2022-12-31T03:18:54.734Z,46.08
2022-12-31T03:22:16.019Z,38.95
2022-12-31T03:25:35.043Z,42.15
2022-12-31T03:28:40.192Z,42.80
2022-12-31T03:31:42.569Z,40.10
2022-12-31T03:34:45.166Z,43.08
2022-12-31T03:37:49.378Z,46.42
2022-12-31T03:40:52.992Z,42.62
2022-12-31T03:43:55.292Z,43.63
2022-12-31T03:46:57.862Z,41.15
2022-12-31T03:50:00.230Z,37.97
2022-12-31T03:53:03.292Z,38.63
2022-12-31T03:56:05.884Z,37.97
2022-12-31T03:59:08.504Z,38.47
2022-12-31T04:02:11.207Z,41.35
2022-12-31T04:05:14.529Z,40.07
2022-12-31T04:08:16.916Z,40.65
2022-12-31T04:14:23.575Z,43.60
2022-12-31T04:17:28.893Z,41.95
2022-12-31T04:20:31.282Z,45.30
2022-12-31T04:23:33.950Z,42.85
2022-12-31T04:26:37.259Z,49.38
2022-12-31T04:29:40.115Z,45.92
2022-12-31T04:32:44.815Z,43.58
2022-12-31T04:35:47.497Z,47.85
2022-12-31T04:38:49.823Z,44.67
2022-12-31T04:41:53.148Z,49.75
2022-12-31T04:44:57.112Z,49.42
2022-12-31T04:47:59.754Z,46.00
2022-12-31T04:51:02.092Z,49.90
2022-12-31T04:54:05.335Z,46.65
2022-12-31T04:57:07.647Z,52.10
2022-12-31T05:00:10.894Z,53.33
2022-12-31T05:03:13.283Z,48.13
2022-12-31T05:06:18.654Z,51.47
2022-12-31T05:09:24.034Z,49.05
2022-12-31T05:12:26.745Z,45.15
2022-12-31T05:15:29.356Z,44.03
2022-12-31T05:18:33.022Z,44.35
2022-12-31T05:21:35.637Z,47.50
2022-12-31T05:24:38.353Z,43.28
2022-12-31T05:27:40.753Z,48.53
2022-12-31T05:30:44.680Z,54.47
2022-12-31T05:33:46.990Z,62.35
2022-12-31T05:36:49.546Z,51.53
2022-12-31T05:39:52.280Z,54.05
2022-12-31T05:42:55.215Z,64.03
2022-12-31T05:46:00.024Z,59.58
2022-12-31T05:49:02.658Z,56.92
2022-12-31T05:52:08.301Z,61.80
2022-12-31T05:55:12.330Z,58.95
2022-12-31T05:58:16.296Z,63.20
2022-12-31T06:01:19.166Z,56.97
2022-12-31T06:04:22.000Z,59.13
2022-12-31T06:07:24.349Z,65.45
2022-12-31T06:10:27.047Z,58.47
2022-12-31T06:13:29.547Z,66.10
2022-12-31T06:16:32.145Z,51.60
2022-12-31T06:19:35.551Z,65.07
2022-12-31T06:22:38.170Z,56.70
2022-12-31T06:25:40.577Z,53.25
2022-12-31T06:28:43.278Z,53.25
2022-12-31T06:31:45.704Z,54.30
2022-12-31T06:34:48.322Z,50.58
2022-12-31T06:37:52.274Z,55.63
2022-12-31T06:40:54.977Z,47.42
2022-12-31T06:43:57.511Z,43.67
2022-12-31T06:50:03.684Z,48.20
2022-12-31T06:53:06.940Z,41.97
2022-12-31T06:56:20.834Z,49.53
2022-12-31T06:59:27.424Z,44.28
2022-12-31T07:02:51.510Z,51.58
2022-12-31T07:06:13.709Z,44.13
2022-12-31T07:09:27.809Z,54.60
2022-12-31T07:12:54.853Z,49.38
2022-12-31T07:16:16.621Z,45.72
2022-12-31T07:19:37.345Z,47.65
2022-12-31T07:22:40.040Z,49.13
2022-12-31T07:25:54.224Z,51.40
2022-12-31T07:29:15.431Z,51.63
2022-12-31T07:32:39.864Z,52.08
2022-12-31T07:35:56.306Z,51.97
2022-12-31T07:39:11.839Z,53.65
2022-12-31T07:42:14.085Z,50.35
2022-12-31T07:45:37.821Z,47.50
2022-12-31T07:48:40.356Z,46.80
2022-12-31T07:51:43.711Z,46.30
2022-12-31T07:54:46.662Z,58.35
2022-12-31T07:58:01.775Z,51.33
2022-12-31T08:01:05.531Z,46.28
2022-12-31T08:04:48.158Z,43.42
2022-12-31T08:07:59.377Z,47.28
2022-12-31T08:11:39.888Z,43.25
2022-12-31T08:14:48.655Z,44.35
2022-12-31T08:17:51.520Z,47.95
2022-12-31T08:21:35.070Z,49.38
2022-12-31T08:24:51.765Z,47.62
2022-12-31T08:28:12.422Z,40.72
2022-12-31T08:31:28.480Z,42.92
2022-12-31T08:34:52.176Z,46.15
2022-12-31T08:38:16.385Z,46.78
2022-12-31T08:41:43.452Z,49.08
2022-12-31T08:44:58.237Z,46.83
2022-12-31T08:48:02.965Z,45.92
2022-12-31T08:51:06.939Z,53.35
2022-12-31T08:54:11.812Z,54.38
2022-12-31T08:57:34.685Z,75.47
2022-12-31T09:00:40.693Z,63.15
2022-12-31T09:04:08.912Z,64.80
2022-12-31T09:07:14.917Z,61.10
2022-12-31T09:10:20.366Z,57.45
2022-12-31T09:14:01.410Z,57.35
2022-12-31T09:17:32.815Z,58.13
2022-12-31T09:20:44.734Z,58.85
2022-12-31T09:23:50.477Z,61.33
2022-12-31T09:27:25.443Z,56.10
2022-12-31T09:30:48.725Z,52.50
2022-12-31T09:33:57.977Z,58.70
2022-12-31T09:37:06.881Z,54.00
2022-12-31T09:40:43.198Z,61.45
2022-12-31T09:44:07.444Z,59.83
2022-12-31T09:47:34.421Z,61.13
2022-12-31T09:50:59.425Z,55.92
2022-12-31T09:54:22.622Z,48.42
2022-12-31T09:57:48.886Z,50.20
2022-12-31T10:01:02.237Z,52.55
2022-12-31T10:04:30.706Z,55.35
2022-12-31T10:07:53.600Z,48.45
2022-12-31T10:11:05.322Z,47.60
2022-12-31T10:14:47.136Z,49.90
2022-12-31T10:18:23.360Z,50.88
2022-12-31T10:21:52.369Z,45.10
2022-12-31T10:25:16.627Z,52.97
2022-12-31T10:28:40.959Z,53.42
2022-12-31T10:32:13.216Z,47.85
2022-12-31T10:35:40.246Z,50.08
2022-12-31T10:39:24.825Z,47.17
2022-12-31T10:43:19.919Z,55.40
2022-12-31T10:46:53.696Z,53.65
2022-12-31T10:50:22.354Z,47.30
2022-12-31T10:53:57.033Z,49.60
2022-12-31T10:57:10.137Z,49.00
2022-12-31T11:00:46.190Z,48.10
2022-12-31T11:04:38.436Z,56.67
2022-12-31T11:07:43.843Z,57.50
2022-12-31T11:10:56.028Z,55.40
2022-12-31T11:14:11.116Z,57.08
2022-12-31T11:17:37.878Z,65.20
2022-12-31T11:21:06.965Z,69.68
2022-12-31T11:24:38.616Z,54.20
2022-12-31T11:27:53.511Z,62.72
2022-12-31T11:31:41.133Z,56.75
2022-12-31T11:35:24.599Z,57.75
2022-12-31T11:38:39.978Z,50.47
2022-12-31T11:41:54.712Z,53.50
2022-12-31T11:45:14.937Z,58.33
2022-12-31T11:48:39.517Z,64.28
2022-12-31T11:52:24.831Z,51.25
2022-12-31T11:55:38.871Z,45.53
2022-12-31T11:58:47.850Z,50.78
2022-12-31T12:02:00.912Z,48.13
2022-12-31T12:05:11.146Z,47.85
2022-12-31T12:08:19.638Z,54.03
2022-12-31T12:11:29.269Z,53.65
2022-12-31T12:14:36.269Z,50.12
2022-12-31T12:17:39.346Z,46.70
2022-12-31T12:20:46.450Z,50.28
2022-12-31T12:23:57.995Z,49.30
2022-12-31T12:27:00.397Z,48.13
2022-12-31T12:30:29.201Z,47.30
2022-12-31T12:33:44.660Z,47.17
2022-12-31T12:36:48.211Z,54.17
2022-12-31T12:40:02.251Z,49.63
2022-12-31T12:43:06.654Z,53.20
2022-12-31T12:46:19.813Z,54.97
2022-12-31T12:49:29.167Z,52.60
2022-12-31T12:52:59.226Z,56.53
2022-12-31T12:56:39.066Z,54.50
2022-12-31T13:00:07.687Z,56.15
2022-12-31T13:03:20.155Z,53.15
2022-12-31T13:06:31.416Z,53.03
2022-12-31T13:10:06.463Z,53.78
2022-12-31T13:13:34.125Z,53.03
2022-12-31T13:16:59.852Z,48.97
2022-12-31T13:20:15.332Z,47.38
2022-12-31T13:23:44.051Z,51.50
2022-12-31T13:27:05.496Z,47.83
2022-12-31T13:30:19.215Z,48.25
2022-12-31T13:33:55.816Z,50.77
2022-12-31T13:37:06.119Z,50.63
2022-12-31T13:40:27.142Z,50.05
2022-12-31T13:43:48.813Z,49.70
2022-12-31T13:47:40.896Z,50.95
2022-12-31T13:50:51.881Z,55.17
2022-12-31T13:54:10.731Z,49.08
2022-12-31T13:57:43.073Z,49.10
2022-12-31T14:00:53.134Z,48.10
2022-12-31T14:04:01.710Z,51.25
2022-12-31T14:07:16.004Z,43.92
2022-12-31T14:10:30.654Z,50.03
2022-12-31T14:17:01.904Z,47.88
2022-12-31T14:20:35.095Z,46.20
2022-12-31T14:24:13.798Z,41.60
2022-12-31T14:27:24.004Z,40.53
2022-12-31T14:30:32.358Z,44.22
2022-12-31T14:34:10.886Z,44.63
2022-12-31T14:37:31.416Z,44.95
2022-12-31T14:40:58.379Z,38.05
2022-12-31T14:44:44.941Z,41.58
2022-12-31T14:48:20.061Z,38.17
2022-12-31T14:54:38.451Z,39.10
2022-12-31T14:58:27.129Z,39.35
2022-12-31T15:01:14.854Z,37.45
2022-12-31T15:04:34.027Z,37.88
2022-12-31T15:07:48.097Z,35.72
2022-12-31T15:11:11.859Z,41.37
2022-12-31T15:14:37.455Z,36.95
2022-12-31T15:17:47.247Z,39.13
2022-12-31T15:21:13.945Z,36.80
2022-12-31T15:24:27.819Z,37.22
2022-12-31T15:27:33.143Z,35.97
2022-12-31T15:30:45.207Z,41.97
2022-12-31T15:34:05.693Z,41.72
2022-12-31T15:37:35.395Z,37.55
2022-12-31T15:40:46.422Z,37.17
2022-12-31T15:44:06.581Z,34.97
2022-12-31T15:47:36.736Z,34.75
2022-12-31T15:50:39.753Z,35.10
2022-12-31T15:53:47.025Z,31.80
2022-12-31T15:56:50.205Z,32.42
2022-12-31T15:59:59.373Z,33.33
2022-12-31T16:03:02.548Z,36.40
2022-12-31T16:06:15.941Z,35.33
2022-12-31T16:09:27.902Z,32.00
2022-12-31T16:12:40.776Z,33.10
2022-12-31T16:15:52.020Z,35.88
2022-12-31T16:18:56.238Z,38.63
2022-12-31T16:22:14.081Z,31.60
2022-12-31T16:25:36.557Z,34.35
2022-12-31T16:28:38.912Z,35.63
2022-12-31T16:31:44.583Z,36.03
2022-12-31T16:34:46.974Z,39.85
2022-12-31T16:38:19.049Z,32.10
2022-12-31T16:41:22.247Z,35.85
2022-12-31T16:44:29.677Z,35.75
2022-12-31T16:47:36.045Z,37.75
2022-12-31T16:50:39.041Z,35.35
2022-12-31T16:53:42.221Z,36.08
2022-12-31T16:56:45.103Z,38.38
2022-12-31T16:59:56.213Z,40.97
2022-12-31T17:03:18.024Z,39.67
2022-12-31T17:06:21.658Z,35.83
2022-12-31T17:09:33.574Z,38.38
2022-12-31T17:13:25.641Z,36.65
2022-12-31T17:16:08.913Z,34.33
2022-12-31T17:19:25.545Z,40.33
2022-12-31T17:22:40.490Z,38.40
2022-12-31T17:25:42.897Z,39.78
2022-12-31T17:28:49.326Z,39.58
2022-12-31T17:32:36.589Z,39.38
2022-12-31T17:35:43.915Z,39.72
2022-12-31T17:38:46.422Z,56.28
2022-12-31T17:41:52.770Z,39.08
2022-12-31T17:44:59.644Z,40.03
2022-12-31T17:48:02.807Z,39.63
2022-12-31T17:51:05.439Z,41.60
2022-12-31T17:54:16.027Z,45.42
2022-12-31T17:57:26.138Z,45.12
2022-12-31T18:00:28.897Z,41.95
2022-12-31T18:03:31.616Z,46.10
2022-12-31T18:06:33.906Z,47.45
2022-12-31T18:09:36.537Z,47.13
2022-12-31T18:12:39.591Z,43.85
2022-12-31T18:15:42.266Z,44.72
2022-12-31T18:18:45.448Z,38.70
2022-12-31T18:21:48.267Z,46.47
2022-12-31T18:24:54.391Z,42.58
2022-12-31T18:27:57.495Z,41.83
2022-12-31T18:31:00.109Z,42.97
2022-12-31T18:34:09.289Z,47.67
2022-12-31T18:37:21.689Z,40.42
2022-12-31T18:40:25.528Z,46.97
2022-12-31T18:43:27.969Z,44.13
2022-12-31T18:46:30.845Z,50.67
2022-12-31T18:49:41.377Z,49.08
2022-12-31T18:52:44.271Z,47.75
2022-12-31T18:55:55.524Z,51.25
2022-12-31T18:58:59.791Z,51.70
2022-12-31T19:05:26.402Z,53.70
2022-12-31T19:08:28.790Z,56.70
2022-12-31T19:11:33.050Z,57.53
2022-12-31T19:14:35.629Z,56.60
2022-12-31T19:17:38.287Z,60.80
2022-12-31T19:20:42.011Z,63.13
2022-12-31T19:26:47.813Z,64.78
2022-12-31T19:29:50.480Z,69.10
2022-12-31T19:32:53.249Z,68.53
2022-12-31T19:35:55.880Z,73.82
2022-12-31T19:38:58.282Z,75.97
2022-12-31T19:42:00.946Z,80.12
2022-12-31T19:45:03.718Z,80.35
2022-12-31T19:48:06.480Z,89.37
2022-12-31T19:51:12.858Z,125.03
2022-12-31T19:54:17.931Z,125.62
2022-12-31T19:57:22.445Z,120.13
2022-12-31T20:00:25.198Z,117.15
2022-12-31T20:03:28.222Z,99.93
2022-12-31T20:06:31.274Z,108.30
2022-12-31T20:09:33.898Z,110.10
2022-12-31T20:12:42.223Z,104.12
2022-12-31T20:15:47.905Z,121.62
2022-12-31T20:18:50.782Z,108.90
2022-12-31T20:21:53.645Z,109.50
2022-12-31T20:24:56.253Z,126.38
2022-12-31T20:27:58.882Z,108.65
2022-12-31T20:31:08.961Z,118.90
2022-12-31T20:34:11.825Z,113.93
2022-12-31T20:37:14.165Z,109.00
2022-12-31T20:40:17.202Z,113.43
2022-12-31T20:43:19.532Z,109.70
2022-12-31T20:46:24.821Z,104.90
2022-12-31T20:50:00.775Z,107.32
2022-12-31T20:52:50.076Z,108.93
2022-12-31T20:55:52.432Z,98.28
2022-12-31T20:58:55.359Z,97.88
2022-12-31T21:02:20.980Z,102.87
2022-12-31T21:05:20.483Z,100.78
2022-12-31T21:08:23.094Z,103.43
2022-12-31T21:11:45.219Z,117.17
2022-12-31T21:14:48.411Z,112.22
2022-12-31T21:17:54.809Z,123.65
2022-12-31T21:21:00.610Z,122.72
2022-12-31T21:24:03.554Z,119.35
2022-12-31T21:27:06.630Z,127.15
2022-12-31T21:30:19.541Z,115.30
2022-12-31T21:33:22.346Z,120.50
2022-12-31T21:36:25.299Z,110.45
2022-12-31T21:39:27.775Z,107.85
2022-12-31T21:42:30.397Z,95.10
2022-12-31T21:45:32.941Z,108.97
2022-12-31T21:48:35.602Z,100.70
2022-12-31T21:51:57.971Z,93.97
2022-12-31T21:55:21.082Z,91.85
2022-12-31T21:58:26.463Z,97.57
2022-12-31T22:01:48.968Z,91.15
2022-12-31T22:05:17.369Z,88.18
2022-12-31T22:08:14.137Z,82.57
2022-12-31T22:11:18.330Z,81.90
2022-12-31T22:14:20.698Z,79.93
2022-12-31T22:17:23.412Z,78.35
2022-12-31T22:20:27.498Z,81.05
2022-12-31T22:23:32.246Z,85.62
2022-12-31T22:26:34.786Z,79.68
2022-12-31T22:29:37.446Z,75.75
2022-12-31T22:32:39.786Z,83.43
2022-12-31T22:35:42.512Z,92.95
2022-12-31T22:38:46.115Z,108.37
2022-12-31T22:41:48.751Z,109.22
2022-12-31T22:44:51.099Z,135.07
2022-12-31T22:47:53.768Z,178.18
2022-12-31T22:50:57.161Z,229.90
2022-12-31T22:53:59.797Z,254.87
2022-12-31T22:57:02.128Z,260.77
2022-12-31T23:00:09.979Z,261.52
2022-12-31T23:03:12.861Z,229.77
2022-12-31T23:06:16.467Z,213.33
2022-12-31T23:09:37.540Z,188.12
2022-12-31T23:12:40.137Z,166.73
2022-12-31T23:16:03.537Z,186.30
2022-12-31T23:19:24.962Z,243.00
2022-12-31T23:22:45.478Z,236.25
2022-12-31T23:25:50.552Z,221.85
2022-12-31T23:28:53.525Z,222.23
2022-12-31T23:31:59.961Z,248.73
2022-12-31T23:35:09.378Z,239.65
2022-12-31T23:38:13.727Z,233.77
2022-12-31T23:41:19.840Z,199.45
2022-12-31T23:44:22.453Z,214.43
2022-12-31T23:47:25.003Z,199.60
2022-12-31T23:50:27.736Z,158.25
2022-12-31T23:53:33.177Z,164.05
2022-12-31T23:56:35.967Z,139.82
2022-12-31T23:59:38.308Z,139.90
